Time,TemperatureF,DewpointF,PressureIn,WindDirection,WindDirectionDegrees,WindSpeedMPH,WindSpeedGustMPH,Humidity,HourlyPrecipIn,Conditions,Clouds,dailyrainin,SoftwareType,DateUTC
2013-01-27 00:00:00,25.0,10.0,-100.00,SSW,192,5.0,15.0,55,-99.99,,,-99.99,,2013-01-27 05:00:00,
2013-01-27 00:22:00,25.0,10.0,-100.00,SSW,192,5.0,15.0,55,-99.99,,,-99.99,,2013-01-27 05:22:00,
2013-01-27 00:32:00,25.0,10.0,-100.00,SSW,192,5.0,15.0,55,-99.99,,,-99.99,,2013-01-27 05:32:00,
2013-01-27 00:42:00,25.0,10.0,-100.00,SSW,192,5.0,15.0,55,-99.99,,,-99.99,,2013-01-27 05:42:00,
2013-01-27 00:52:00,25.0,10.0,-100.00,SSW,192,5.0,15.0,55,-99.99,,,-99.99,,2013-01-27 05:52:00,
2013-01-27 01:00:00,24.0,10.0,-100.00,NNE,12,5.0,13.0,58,-99.99,,,-99.99,,2013-01-27 06:00:00,
2013-01-27 01:22:00,24.0,10.0,-100.00,NNE,12,5.0,13.0,58,-99.99,,,-99.99,,2013-01-27 06:22:00,
2013-01-27 01:32:00,24.0,10.0,-100.00,NNE,12,5.0,13.0,58,-99.99,,,-99.99,,2013-01-27 06:32:00,
2013-01-27 01:42:00,24.0,10.0,-100.00,NNE,12,5.0,13.0,58,-99.99,,,-99.99,,2013-01-27 06:42:00,
2013-01-27 01:52:00,24.0,10.0,-100.00,NNE,12,5.0,13.0,58,-99.99,,,-99.99,,2013-01-27 06:52:00,
2013-01-27 02:00:00,24.0,10.0,-100.00,North,11,5.0,9.0,56,-99.99,,,-99.99,,2013-01-27 07:00:00,
2013-01-27 02:21:00,24.0,10.0,-100.00,North,11,5.0,9.0,56,-99.99,,,-99.99,,2013-01-27 07:21:00,
2013-01-27 02:32:00,24.0,10.0,-100.00,North,11,5.0,9.0,56,-99.99,,,-99.99,,2013-01-27 07:32:00,
2013-01-27 02:42:00,24.0,10.0,-100.00,North,11,5.0,9.0,56,-99.99,,,-99.99,,2013-01-27 07:42:00,
2013-01-27 02:52:00,24.0,10.0,-100.00,North,11,5.0,9.0,56,-99.99,,,-99.99,,2013-01-27 07:52:00,
2013-01-27 03:00:00,24.0,10.0,-100.00,North,2,5.0,11.0,57,-99.99,,,-99.99,,2013-01-27 08:00:00,
2013-01-27 03:22:00,24.0,10.0,-100.00,North,2,5.0,11.0,57,-99.99,,,-99.99,,2013-01-27 08:22:00,
2013-01-27 03:32:00,24.0,10.0,-100.00,North,2,5.0,11.0,57,-99.99,,,-99.99,,2013-01-27 08:32:00,
2013-01-27 03:42:00,24.0,10.0,-100.00,North,2,5.0,11.0,57,-99.99,,,-99.99,,2013-01-27 08:42:00,
2013-01-27 03:52:00,24.0,10.0,-100.00,North,2,5.0,11.0,57,-99.99,,,-99.99,,2013-01-27 08:52:00,
2013-01-27 05:00:00,25.0,10.0,-100.00,NNE,12,4.0,10.0,55,-99.99,,,-99.99,,2013-01-27 10:00:00,
2013-01-27 05:21:00,25.0,10.0,-100.00,NNE,12,4.0,10.0,55,-99.99,,,-99.99,,2013-01-27 10:21:00,
2013-01-27 05:32:00,25.0,10.0,-100.00,NNE,12,4.0,10.0,55,-99.99,,,-99.99,,2013-01-27 10:32:00,
2013-01-27 05:42:00,25.0,10.0,-100.00,NNE,12,4.0,10.0,55,-99.99,,,-99.99,,2013-01-27 10:42:00,
2013-01-27 05:52:00,25.0,10.0,-100.00,NNE,12,4.0,10.0,55,-99.99,,,-99.99,,2013-01-27 10:52:00,
2013-01-27 06:00:00,24.0,10.0,-100.00,NNE,26,5.0,9.0,56,-99.99,,,-99.99,,2013-01-27 11:00:00,
2013-01-27 06:22:00,24.0,10.0,-100.00,NNE,26,5.0,9.0,56,-99.99,,,-99.99,,2013-01-27 11:22:00,
2013-01-27 06:32:00,24.0,10.0,-100.00,NNE,26,5.0,9.0,56,-99.99,,,-99.99,,2013-01-27 11:32:00,
2013-01-27 06:42:00,24.0,10.0,-100.00,NNE,26,5.0,9.0,56,-99.99,,,-99.99,,2013-01-27 11:42:00,
2013-01-27 06:52:00,24.0,10.0,-100.00,NNE,26,5.0,9.0,56,-99.99,,,-99.99,,2013-01-27 11:52:00,
2013-01-27 07:00:00,24.0,10.0,-100.00,North,1,1.0,5.0,56,-99.99,,,-99.99,,2013-01-27 12:00:00,
2013-01-27 07:22:00,24.0,10.0,-100.00,North,1,1.0,5.0,56,-99.99,,,-99.99,,2013-01-27 12:22:00,
2013-01-27 07:33:00,24.0,10.0,-100.00,North,1,1.0,5.0,56,-99.99,,,-99.99,,2013-01-27 12:33:00,
2013-01-27 07:42:00,24.0,10.0,-100.00,North,1,1.0,5.0,56,-99.99,,,-99.99,,2013-01-27 12:42:00,
2013-01-27 07:52:00,24.0,10.0,-100.00,North,1,1.0,5.0,56,-99.99,,,-99.99,,2013-01-27 12:52:00,
2013-01-27 08:00:00,26.0,10.0,-100.00,North,354,8.0,11.0,52,-99.99,,,-99.99,,2013-01-27 13:00:00,
2013-01-27 08:22:00,26.0,10.0,-100.00,North,354,8.0,11.0,52,-99.99,,,-99.99,,2013-01-27 13:22:00,
2013-01-27 08:32:00,26.0,10.0,-100.00,North,354,8.0,11.0,52,-99.99,,,-99.99,,2013-01-27 13:32:00,
2013-01-27 08:42:00,26.0,10.0,-100.00,North,354,8.0,11.0,52,-99.99,,,-99.99,,2013-01-27 13:42:00,
2013-01-27 08:52:00,26.0,10.0,-100.00,North,354,8.0,11.0,52,-99.99,,,-99.99,,2013-01-27 13:52:00,
2013-01-27 09:00:00,28.0,14.0,-100.00,North,1,9.0,15.0,56,-99.99,,,-99.99,,2013-01-27 14:00:00,
2013-01-27 09:22:00,28.0,14.0,-100.00,North,1,9.0,15.0,56,-99.99,,,-99.99,,2013-01-27 14:22:00,
2013-01-27 09:33:00,28.0,14.0,-100.00,North,1,9.0,15.0,56,-99.99,,,-99.99,,2013-01-27 14:33:00,
2013-01-27 09:43:00,28.0,14.0,-100.00,North,1,9.0,15.0,56,-99.99,,,-99.99,,2013-01-27 14:43:00,
2013-01-27 09:53:00,28.0,14.0,-100.00,North,1,9.0,15.0,56,-99.99,,,-99.99,,2013-01-27 14:53:00,
2013-01-27 10:00:00,29.0,15.0,-100.00,North,350,13.0,16.0,57,-99.99,,,-99.99,,2013-01-27 15:00:00,
2013-01-27 10:22:00,29.0,15.0,-100.00,North,350,13.0,16.0,57,-99.99,,,-99.99,,2013-01-27 15:22:00,
2013-01-27 10:33:00,29.0,15.0,-100.00,North,350,13.0,16.0,57,-99.99,,,-99.99,,2013-01-27 15:33:00,
2013-01-27 10:42:00,29.0,15.0,-100.00,North,350,13.0,16.0,57,-99.99,,,-99.99,,2013-01-27 15:42:00,
2013-01-27 10:53:00,29.0,15.0,-100.00,North,350,13.0,16.0,57,-99.99,,,-99.99,,2013-01-27 15:53:00,
2013-01-27 11:00:00,29.0,15.0,-100.00,NNW,343,6.0,16.0,56,-99.99,,,-99.99,,2013-01-27 16:00:00,
2013-01-27 11:22:00,29.0,15.0,-100.00,NNW,343,6.0,16.0,56,-99.99,,,-99.99,,2013-01-27 16:22:00,
2013-01-27 11:33:00,29.0,15.0,-100.00,NNW,343,6.0,16.0,56,-99.99,,,-99.99,,2013-01-27 16:33:00,
2013-01-27 11:42:00,29.0,15.0,-100.00,NNW,343,6.0,16.0,56,-99.99,,,-99.99,,2013-01-27 16:42:00,
2013-01-27 11:53:00,29.0,15.0,-100.00,NNW,343,6.0,16.0,56,-99.99,,,-99.99,,2013-01-27 16:53:00,
2013-01-27 12:00:00,30.0,18.0,-100.00,NW,306,9.0,16.0,61,-99.99,,,-99.99,,2013-01-27 17:00:00,
2013-01-27 12:22:00,30.0,18.0,-100.00,NW,306,9.0,16.0,61,-99.99,,,-99.99,,2013-01-27 17:22:00,
2013-01-27 12:32:00,30.0,18.0,-100.00,NW,306,9.0,16.0,61,-99.99,,,-99.99,,2013-01-27 17:32:00,
2013-01-27 12:42:00,30.0,18.0,-100.00,NW,306,9.0,16.0,61,-99.99,,,-99.99,,2013-01-27 17:42:00,
2013-01-27 12:53:00,30.0,18.0,-100.00,NW,306,9.0,16.0,61,-99.99,,,-99.99,,2013-01-27 17:53:00,
2013-01-27 13:00:00,31.0,18.0,-100.00,NW,318,11.0,15.0,58,-99.99,,,-99.99,,2013-01-27 18:00:00,
2013-01-27 13:23:00,31.0,18.0,-100.00,NW,318,11.0,15.0,58,-99.99,,,-99.99,,2013-01-27 18:23:00,
2013-01-27 13:32:00,31.0,18.0,-100.00,NW,318,11.0,15.0,58,-99.99,,,-99.99,,2013-01-27 18:32:00,
2013-01-27 13:42:00,31.0,18.0,-100.00,NW,318,11.0,15.0,58,-99.99,,,-99.99,,2013-01-27 18:42:00,
2013-01-27 13:53:00,31.0,18.0,-100.00,NW,318,11.0,15.0,58,-99.99,,,-99.99,,2013-01-27 18:53:00,
2013-01-27 14:00:00,32.0,16.0,-100.00,NNW,344,11.0,16.0,52,-99.99,,,-99.99,,2013-01-27 19:00:00,
2013-01-27 14:22:00,32.0,16.0,-100.00,NNW,344,11.0,16.0,52,-99.99,,,-99.99,,2013-01-27 19:22:00,
2013-01-27 14:33:00,32.0,16.0,-100.00,NNW,344,11.0,16.0,52,-99.99,,,-99.99,,2013-01-27 19:33:00,
2013-01-27 14:42:00,32.0,16.0,-100.00,NNW,344,11.0,16.0,52,-99.99,,,-99.99,,2013-01-27 19:42:00,
2013-01-27 14:52:00,32.0,16.0,-100.00,NNW,344,11.0,16.0,52,-99.99,,,-99.99,,2013-01-27 19:52:00,
2013-01-27 15:00:00,32.0,16.0,-100.00,NNW,339,5.0,13.0,51,-99.99,,,-99.99,,2013-01-27 20:00:00,
2013-01-27 15:22:00,32.0,16.0,-100.00,NNW,339,5.0,13.0,51,-99.99,,,-99.99,,2013-01-27 20:22:00,
2013-01-27 15:33:00,32.0,16.0,-100.00,NNW,339,5.0,13.0,51,-99.99,,,-99.99,,2013-01-27 20:33:00,
2013-01-27 15:42:00,32.0,16.0,-100.00,NNW,339,5.0,13.0,51,-99.99,,,-99.99,,2013-01-27 20:42:00,
2013-01-27 15:52:00,32.0,16.0,-100.00,NNW,339,5.0,13.0,51,-99.99,,,-99.99,,2013-01-27 20:52:00,
2013-01-27 16:00:00,33.0,16.0,-100.00,West,272,3.0,11.0,50,-99.99,,,-99.99,,2013-01-27 21:00:00,
2013-01-27 16:23:00,33.0,16.0,-100.00,West,272,3.0,11.0,50,-99.99,,,-99.99,,2013-01-27 21:23:00,
2013-01-27 16:33:00,33.0,16.0,-100.00,West,272,3.0,11.0,50,-99.99,,,-99.99,,2013-01-27 21:33:00,
2013-01-27 16:43:00,33.0,16.0,-100.00,West,272,3.0,11.0,50,-99.99,,,-99.99,,2013-01-27 21:43:00,
2013-01-27 16:52:00,33.0,16.0,-100.00,West,272,3.0,11.0,50,-99.99,,,-99.99,,2013-01-27 21:52:00,
2013-01-27 18:00:00,27.0,17.0,-100.00,WSW,250,0.0,-999.0,67,-99.99,,,-99.99,,2013-01-27 23:00:00,
2013-01-27 18:22:00,27.0,17.0,-100.00,WSW,250,0.0,-999.0,67,-99.99,,,-99.99,,2013-01-27 23:22:00,
2013-01-27 18:32:00,27.0,17.0,-100.00,WSW,250,0.0,-999.0,67,-99.99,,,-99.99,,2013-01-27 23:32:00,
2013-01-27 18:42:00,27.0,17.0,-100.00,WSW,250,0.0,-999.0,67,-99.99,,,-99.99,,2013-01-27 23:42:00,
2013-01-27 18:53:00,27.0,17.0,-100.00,WSW,250,0.0,-999.0,67,-99.99,,,-99.99,,2013-01-27 23:53:00,
2013-01-27 19:00:00,26.0,20.0,-100.00,WNW,286,0.0,0.0,80,-99.99,,,-99.99,,2013-01-28 00:00:00,
2013-01-27 19:22:00,26.0,20.0,-100.00,WNW,286,0.0,0.0,80,-99.99,,,-99.99,,2013-01-28 00:22:00,
2013-01-27 19:33:00,26.0,20.0,-100.00,WNW,286,0.0,0.0,80,-99.99,,,-99.99,,2013-01-28 00:33:00,
2013-01-27 19:42:00,26.0,20.0,-100.00,WNW,286,0.0,0.0,80,-99.99,,,-99.99,,2013-01-28 00:42:00,
2013-01-27 19:52:00,26.0,20.0,-100.00,WNW,286,0.0,0.0,80,-99.99,,,-99.99,,2013-01-28 00:52:00,
2013-01-27 20:00:00,25.0,18.0,-100.00,SE,130,0.0,0.0,81,-99.99,,,-99.99,,2013-01-28 01:00:00,
2013-01-27 20:22:00,25.0,18.0,-100.00,SE,130,0.0,0.0,81,-99.99,,,-99.99,,2013-01-28 01:22:00,
2013-01-27 20:33:00,25.0,18.0,-100.00,SE,130,0.0,0.0,81,-99.99,,,-99.99,,2013-01-28 01:33:00,
2013-01-27 20:42:00,25.0,18.0,-100.00,SE,130,0.0,0.0,81,-99.99,,,-99.99,,2013-01-28 01:42:00,
2013-01-27 20:52:00,25.0,18.0,-100.00,SE,130,0.0,0.0,81,-99.99,,,-99.99,,2013-01-28 01:52:00,
2013-01-27 21:00:00,24.0,19.0,-100.00,NE,36,0.0,0.0,86,-99.99,,,-99.99,,2013-01-28 02:00:00,
2013-01-27 21:22:00,24.0,19.0,-100.00,NE,36,0.0,0.0,86,-99.99,,,-99.99,,2013-01-28 02:22:00,
2013-01-27 21:32:00,24.0,19.0,-100.00,NE,36,0.0,0.0,86,-99.99,,,-99.99,,2013-01-28 02:32:00,
2013-01-27 21:42:00,24.0,19.0,-100.00,NE,36,0.0,0.0,86,-99.99,,,-99.99,,2013-01-28 02:42:00,
2013-01-27 21:53:00,24.0,19.0,-100.00,NE,36,0.0,0.0,86,-99.99,,,-99.99,,2013-01-28 02:53:00,
2013-01-27 22:00:00,24.0,19.0,-100.00,NE,36,0.0,0.0,87,-99.99,,,-99.99,,2013-01-28 03:00:00,
2013-01-27 22:22:00,24.0,19.0,-100.00,NE,36,0.0,0.0,87,-99.99,,,-99.99,,2013-01-28 03:22:00,
2013-01-27 22:32:00,24.0,19.0,-100.00,NE,36,0.0,0.0,87,-99.99,,,-99.99,,2013-01-28 03:32:00,
2013-01-27 22:42:00,24.0,19.0,-100.00,NE,36,0.0,0.0,87,-99.99,,,-99.99,,2013-01-28 03:42:00,
2013-01-27 22:53:00,24.0,19.0,-100.00,NE,36,0.0,0.0,87,-99.99,,,-99.99,,2013-01-28 03:53:00,
2013-01-27 23:00:00,29.0,21.0,-100.00,WSW,244,0.0,3.0,72,-99.99,,,-99.99,,2013-01-28 04:00:00,
2013-01-27 23:22:00,29.0,21.0,-100.00,WSW,244,0.0,3.0,72,-99.99,,,-99.99,,2013-01-28 04:22:00,
2013-01-27 23:32:00,29.0,21.0,-100.00,WSW,244,0.0,3.0,72,-99.99,,,-99.99,,2013-01-28 04:32:00,
2013-01-27 23:42:00,29.0,21.0,-100.00,WSW,244,0.0,3.0,72,-99.99,,,-99.99,,2013-01-28 04:42:00,
2013-01-27 23:52:00,29.0,21.0,-100.00,WSW,244,0.0,3.0,72,-99.99,,,-99.99,,2013-01-28 04:52:00,